sensor_id;sensor_type;location;lat;lon;timestamp;P1;durP1;ratioP1;P2;durP2;ratioP2
48791;SDS011;34587;48.816;9.420;2024-03-25T00:00:38;1.85;;;1.30;;
48791;SDS011;34587;48.816;9.420;2024-03-25T00:03:03;1.30;;;1.20;;
48791;SDS011;34587;48.816;9.420;2024-03-25T00:05:28;2.95;;;1.30;;
48791;SDS011;34587;48.816;9.420;2024-03-25T00:07:55;2.72;;;1.30;;
48791;SDS011;34587;48.816;9.420;2024-03-25T00:10:21;1.58;;;1.33;;
48791;SDS011;34587;48.816;9.420;2024-03-25T00:12:47;4.10;;;1.75;;
48791;SDS011;34587;48.816;9.420;2024-03-25T00:15:17;1.25;;;1.10;;
48791;SDS011;34587;48.816;9.420;2024-03-25T00:17:44;3.38;;;1.30;;
48791;SDS011;34587;48.816;9.420;2024-03-25T00:20:10;1.88;;;1.65;;
48791;SDS011;34587;48.816;9.420;2024-03-25T00:22:35;2.45;;;1.63;;
48791;SDS011;34587;48.816;9.420;2024-03-25T00:25:01;3.97;;;1.25;;
48791;SDS011;34587;48.816;9.420;2024-03-25T00:27:26;2.92;;;1.88;;
48791;SDS011;34587;48.816;9.420;2024-03-25T00:29:51;4.28;;;1.20;;
48791;SDS011;34587;48.816;9.420;2024-03-25T00:32:17;1.45;;;1.17;;
48791;SDS011;34587;48.816;9.420;2024-03-25T00:34:42;2.83;;;1.08;;
48791;SDS011;34587;48.816;9.420;2024-03-25T00:37:07;2.22;;;0.98;;
48791;SDS011;34587;48.816;9.420;2024-03-25T00:39:32;1.17;;;1.02;;
48791;SDS011;34587;48.816;9.420;2024-03-25T00:41:59;2.13;;;1.63;;
48791;SDS011;34587;48.816;9.420;2024-03-25T00:44:25;1.77;;;1.63;;
48791;SDS011;34587;48.816;9.420;2024-03-25T00:46:50;2.58;;;1.20;;
48791;SDS011;34587;48.816;9.420;2024-03-25T00:49:16;1.52;;;1.05;;
48791;SDS011;34587;48.816;9.420;2024-03-25T00:51:41;2.65;;;1.20;;
48791;SDS011;34587;48.816;9.420;2024-03-25T00:54:06;3.67;;;1.42;;
48791;SDS011;34587;48.816;9.420;2024-03-25T00:56:32;4.57;;;1.40;;
48791;SDS011;34587;48.816;9.420;2024-03-25T00:58:57;1.88;;;1.23;;
48791;SDS011;34587;48.816;9.420;2024-03-25T05:16:03;2.42;;;1.80;;
48791;SDS011;34587;48.816;9.420;2024-03-25T05:18:28;3.10;;;2.00;;
48791;SDS011;34587;48.816;9.420;2024-03-25T05:20:54;6.05;;;2.30;;
48791;SDS011;34587;48.816;9.420;2024-03-25T05:23:19;5.15;;;2.03;;
48791;SDS011;34587;48.816;9.420;2024-03-25T05:25:44;2.65;;;2.10;;
48791;SDS011;34587;48.816;9.420;2024-03-25T05:28:09;4.63;;;2.00;;
48791;SDS011;34587;48.816;9.420;2024-03-25T05:30:35;4.03;;;1.83;;
48791;SDS011;34587;48.816;9.420;2024-03-25T05:33:00;4.45;;;1.92;;
48791;SDS011;34587;48.816;9.420;2024-03-25T05:35:25;10.88;;;2.05;;
48791;SDS011;34587;48.816;9.420;2024-03-25T05:37:51;4.47;;;2.13;;
48791;SDS011;34587;48.816;9.420;2024-03-25T05:40:16;2.28;;;2.05;;
48791;SDS011;34587;48.816;9.420;2024-03-25T05:42:44;4.57;;;1.90;;
48791;SDS011;34587;48.816;9.420;2024-03-25T05:45:10;5.80;;;2.40;;
48791;SDS011;34587;48.816;9.420;2024-03-25T05:47:35;3.90;;;2.55;;
48791;SDS011;34587;48.816;9.420;2024-03-25T05:50:01;5.43;;;2.40;;
48791;SDS011;34587;48.816;9.420;2024-03-25T05:52:28;5.70;;;2.15;;
48791;SDS011;34587;48.816;9.420;2024-03-25T05:54:53;3.75;;;2.15;;
48791;SDS011;34587;48.816;9.420;2024-03-25T05:57:19;3.63;;;2.13;;
48791;SDS011;34587;48.816;9.420;2024-03-25T05:59:44;6.72;;;2.28;;
48791;SDS011;34587;48.816;9.420;2024-03-25T06:02:09;7.00;;;2.80;;
48791;SDS011;34587;48.816;9.420;2024-03-25T06:04:34;9.70;;;2.90;;
48791;SDS011;34587;48.816;9.420;2024-03-25T06:07:00;3.13;;;2.10;;
48791;SDS011;34587;48.816;9.420;2024-03-25T06:09:25;3.63;;;1.90;;
48791;SDS011;34587;48.816;9.420;2024-03-25T06:11:51;3.05;;;2.00;;
48791;SDS011;34587;48.816;9.420;2024-03-25T06:14:16;6.95;;;1.83;;
48791;SDS011;34587;48.816;9.420;2024-03-25T06:16:41;2.63;;;1.67;;
48791;SDS011;34587;48.816;9.420;2024-03-25T06:19:08;3.33;;;2.38;;
48791;SDS011;34587;48.816;9.420;2024-03-25T06:21:33;3.67;;;2.03;;
48791;SDS011;34587;48.816;9.420;2024-03-25T06:23:58;4.47;;;1.88;;
48791;SDS011;34587;48.816;9.420;2024-03-25T06:26:23;3.83;;;1.90;;
48791;SDS011;34587;48.816;9.420;2024-03-25T06:28:49;1.70;;;1.60;;
48791;SDS011;34587;48.816;9.420;2024-03-25T06:31:14;1.85;;;1.63;;
48791;SDS011;34587;48.816;9.420;2024-03-25T06:33:58;3.30;;;1.63;;
48791;SDS011;34587;48.816;9.420;2024-03-25T06:36:42;2.78;;;1.70;;
48791;SDS011;34587;48.816;9.420;2024-03-25T06:39:08;2.25;;;1.88;;
48791;SDS011;34587;48.816;9.420;2024-03-25T06:41:34;1.85;;;1.70;;
48791;SDS011;34587;48.816;9.420;2024-03-25T06:43:59;3.13;;;1.90;;
48791;SDS011;34587;48.816;9.420;2024-03-25T06:46:24;2.22;;;1.40;;
48791;SDS011;34587;48.816;9.420;2024-03-25T06:48:49;2.60;;;1.55;;
48791;SDS011;34587;48.816;9.420;2024-03-25T06:51:17;2.17;;;1.55;;
48791;SDS011;34587;48.816;9.420;2024-03-25T06:53:42;4.28;;;1.88;;
48791;SDS011;34587;48.816;9.420;2024-03-25T06:56:08;3.42;;;1.50;;
48791;SDS011;34587;48.816;9.420;2024-03-25T06:58:33;4.88;;;1.60;;
48791;SDS011;34587;48.816;9.420;2024-03-25T07:01:03;6.18;;;1.48;;
48791;SDS011;34587;48.816;9.420;2024-03-25T07:03:30;1.75;;;1.40;;
48791;SDS011;34587;48.816;9.420;2024-03-25T07:05:56;2.45;;;1.80;;
48791;SDS011;34587;48.816;9.420;2024-03-25T07:08:22;4.47;;;1.73;;
48791;SDS011;34587;48.816;9.420;2024-03-25T07:10:47;4.15;;;1.80;;
48791;SDS011;34587;48.816;9.420;2024-03-25T07:13:13;5.28;;;2.00;;
48791;SDS011;34587;48.816;9.420;2024-03-25T07:15:39;4.75;;;2.17;;
48791;SDS011;34587;48.816;9.420;2024-03-25T07:18:05;5.57;;;2.00;;
48791;SDS011;34587;48.816;9.420;2024-03-25T07:20:31;1.70;;;1.60;;
48791;SDS011;34587;48.816;9.420;2024-03-25T07:22:56;7.65;;;1.90;;
48791;SDS011;34587;48.816;9.420;2024-03-25T07:25:22;3.25;;;1.60;;
48791;SDS011;34587;48.816;9.420;2024-03-25T07:27:48;4.80;;;1.80;;
48791;SDS011;34587;48.816;9.420;2024-03-25T07:30:16;4.45;;;1.83;;
48791;SDS011;34587;48.816;9.420;2024-03-25T07:32:42;5.03;;;1.83;;
48791;SDS011;34587;48.816;9.420;2024-03-25T07:35:09;1.90;;;1.40;;
48791;SDS011;34587;48.816;9.420;2024-03-25T07:37:35;7.47;;;1.83;;
48791;SDS011;34587;48.816;9.420;2024-03-25T07:40:00;3.30;;;1.75;;
48791;SDS011;34587;48.816;9.420;2024-03-25T07:42:26;5.35;;;1.90;;
48791;SDS011;34587;48.816;9.420;2024-03-25T07:44:51;2.67;;;1.73;;
48791;SDS011;34587;48.816;9.420;2024-03-25T07:47:17;4.53;;;1.85;;
48791;SDS011;34587;48.816;9.420;2024-03-25T07:49:43;2.45;;;1.30;;
48791;SDS011;34587;48.816;9.420;2024-03-25T07:52:08;6.60;;;2.00;;
48791;SDS011;34587;48.816;9.420;2024-03-25T07:54:33;4.68;;;2.17;;
48791;SDS011;34587;48.816;9.420;2024-03-25T07:56:59;5.07;;;1.80;;
48791;SDS011;34587;48.816;9.420;2024-03-25T07:59:24;6.30;;;2.00;;
48791;SDS011;34587;48.816;9.420;2024-03-25T08:01:49;13.35;;;2.28;;
48791;SDS011;34587;48.816;9.420;2024-03-25T08:04:15;5.80;;;1.90;;
48791;SDS011;34587;48.816;9.420;2024-03-25T08:06:40;5.13;;;1.60;;
48791;SDS011;34587;48.816;9.420;2024-03-25T08:09:05;6.63;;;2.88;;
48791;SDS011;34587;48.816;9.420;2024-03-25T08:11:33;7.28;;;3.42;;
48791;SDS011;34587;48.816;9.420;2024-03-25T08:13:59;4.57;;;2.53;;
48791;SDS011;34587;48.816;9.420;2024-03-25T08:16:24;7.75;;;2.38;;
48791;SDS011;34587;48.816;9.420;2024-03-25T08:18:49;4.72;;;1.85;;
48791;SDS011;34587;48.816;9.420;2024-03-25T08:21:15;3.08;;;2.17;;
48791;SDS011;34587;48.816;9.420;2024-03-25T08:23:41;4.10;;;2.35;;
48791;SDS011;34587;48.816;9.420;2024-03-25T08:26:06;5.68;;;1.77;;
48791;SDS011;34587;48.816;9.420;2024-03-25T08:28:32;3.65;;;1.80;;
48791;SDS011;34587;48.816;9.420;2024-03-25T08:30:58;3.88;;;1.40;;
48791;SDS011;34587;48.816;9.420;2024-03-25T08:33:23;4.05;;;1.48;;
48791;SDS011;34587;48.816;9.420;2024-03-25T08:35:48;5.78;;;1.55;;
48791;SDS011;34587;48.816;9.420;2024-03-25T08:38:14;5.07;;;1.88;;
48791;SDS011;34587;48.816;9.420;2024-03-25T08:40:39;3.60;;;1.50;;
48791;SDS011;34587;48.816;9.420;2024-03-25T08:43:05;2.90;;;1.38;;
48791;SDS011;34587;48.816;9.420;2024-03-25T08:45:31;3.33;;;1.40;;
48791;SDS011;34587;48.816;9.420;2024-03-25T08:47:57;6.57;;;1.30;;
48791;SDS011;34587;48.816;9.420;2024-03-25T08:50:22;7.22;;;1.48;;
48791;SDS011;34587;48.816;9.420;2024-03-25T08:52:47;3.58;;;1.48;;
48791;SDS011;34587;48.816;9.420;2024-03-25T08:55:12;3.20;;;1.65;;
48791;SDS011;34587;48.816;9.420;2024-03-25T08:57:38;4.30;;;1.63;;
48791;SDS011;34587;48.816;9.420;2024-03-25T09:00:03;4.07;;;1.40;;
48791;SDS011;34587;48.816;9.420;2024-03-25T09:02:29;8.15;;;3.63;;
48791;SDS011;34587;48.816;9.420;2024-03-25T09:04:54;4.35;;;2.15;;
48791;SDS011;34587;48.816;9.420;2024-03-25T09:07:19;1.25;;;1.00;;
48791;SDS011;34587;48.816;9.420;2024-03-25T09:09:45;6.05;;;1.73;;
48791;SDS011;34587;48.816;9.420;2024-03-25T09:12:28;8.60;;;2.35;;
48791;SDS011;34587;48.816;9.420;2024-03-25T09:14:54;5.13;;;1.80;;
48791;SDS011;34587;48.816;9.420;2024-03-25T09:17:19;4.03;;;1.45;;
48791;SDS011;34587;48.816;9.420;2024-03-25T09:19:44;1.85;;;0.80;;
48791;SDS011;34587;48.816;9.420;2024-03-25T09:22:10;3.80;;;1.40;;
48791;SDS011;34587;48.816;9.420;2024-03-25T09:24:35;4.32;;;1.70;;
48791;SDS011;34587;48.816;9.420;2024-03-25T09:27:00;5.32;;;1.63;;
48791;SDS011;34587;48.816;9.420;2024-03-25T09:29:26;4.47;;;1.50;;
48791;SDS011;34587;48.816;9.420;2024-03-25T09:31:51;1.37;;;1.10;;
48791;SDS011;34587;48.816;9.420;2024-03-25T09:34:16;3.13;;;1.30;;
48791;SDS011;34587;48.816;9.420;2024-03-25T09:36:41;6.00;;;1.20;;
48791;SDS011;34587;48.816;9.420;2024-03-25T09:39:07;4.43;;;1.77;;
48791;SDS011;34587;48.816;9.420;2024-03-25T09:41:33;4.05;;;1.45;;
48791;SDS011;34587;48.816;9.420;2024-03-25T09:44:01;2.13;;;1.33;;
48791;SDS011;34587;48.816;9.420;2024-03-25T09:46:30;4.22;;;1.20;;
48791;SDS011;34587;48.816;9.420;2024-03-25T09:48:55;1.58;;;0.73;;
48791;SDS011;34587;48.816;9.420;2024-03-25T09:51:21;4.30;;;1.38;;
48791;SDS011;34587;48.816;9.420;2024-03-25T09:53:46;4.45;;;1.48;;
48791;SDS011;34587;48.816;9.420;2024-03-25T09:56:12;1.85;;;0.75;;
48791;SDS011;34587;48.816;9.420;2024-03-25T09:58:38;1.90;;;0.70;;
48791;SDS011;34587;48.816;9.420;2024-03-25T10:01:04;2.15;;;0.70;;
48791;SDS011;34587;48.816;9.420;2024-03-25T10:03:30;2.45;;;1.08;;
48791;SDS011;34587;48.816;9.420;2024-03-25T10:05:55;1.88;;;0.98;;
48791;SDS011;34587;48.816;9.420;2024-03-25T10:08:23;3.28;;;0.98;;
48791;SDS011;34587;48.816;9.420;2024-03-25T10:10:55;4.07;;;1.20;;
48791;SDS011;34587;48.816;9.420;2024-03-25T10:13:21;1.33;;;0.75;;
48791;SDS011;34587;48.816;9.420;2024-03-25T10:15:49;1.42;;;0.55;;
48791;SDS011;34587;48.816;9.420;2024-03-25T10:18:15;4.40;;;1.00;;
48791;SDS011;34587;48.816;9.420;2024-03-25T10:20:51;2.88;;;0.98;;
48791;SDS011;34587;48.816;9.420;2024-03-25T10:23:20;2.67;;;0.95;;
48791;SDS011;34587;48.816;9.420;2024-03-25T10:25:47;4.15;;;0.90;;
48791;SDS011;34587;48.816;9.420;2024-03-25T10:28:13;1.70;;;0.85;;
48791;SDS011;34587;48.816;9.420;2024-03-25T10:30:38;2.58;;;0.85;;
48791;SDS011;34587;48.816;9.420;2024-03-25T10:33:06;2.20;;;1.10;;
48791;SDS011;34587;48.816;9.420;2024-03-25T10:35:33;2.88;;;1.10;;
48791;SDS011;34587;48.816;9.420;2024-03-25T10:38:01;2.10;;;1.00;;
48791;SDS011;34587;48.816;9.420;2024-03-25T10:40:29;3.63;;;1.23;;
48791;SDS011;34587;48.816;9.420;2024-03-25T10:42:58;1.00;;;0.90;;
48791;SDS011;34587;48.816;9.420;2024-03-25T10:45:27;2.00;;;0.95;;
48791;SDS011;34587;48.816;9.420;2024-03-25T10:47:55;2.88;;;1.05;;
48791;SDS011;34587;48.816;9.420;2024-03-25T10:50:24;4.27;;;1.00;;
48791;SDS011;34587;48.816;9.420;2024-03-25T10:52:53;5.43;;;1.25;;
48791;SDS011;34587;48.816;9.420;2024-03-25T10:55:19;2.50;;;0.85;;
48791;SDS011;34587;48.816;9.420;2024-03-25T10:57:47;1.10;;;1.00;;
48791;SDS011;34587;48.816;9.420;2024-03-25T11:00:13;4.50;;;1.40;;
48791;SDS011;34587;48.816;9.420;2024-03-25T11:02:41;3.22;;;1.05;;
48791;SDS011;34587;48.816;9.420;2024-03-25T11:05:08;2.38;;;0.82;;
48791;SDS011;34587;48.816;9.420;2024-03-25T11:07:35;4.50;;;0.95;;
48791;SDS011;34587;48.816;9.420;2024-03-25T11:10:03;1.30;;;1.20;;
48791;SDS011;34587;48.816;9.420;2024-03-25T11:14:57;2.40;;;1.00;;
48791;SDS011;34587;48.816;9.420;2024-03-25T11:17:22;1.20;;;1.00;;
48791;SDS011;34587;48.816;9.420;2024-03-25T11:19:48;2.20;;;1.15;;
48791;SDS011;34587;48.816;9.420;2024-03-25T11:22:13;4.25;;;1.27;;
48791;SDS011;34587;48.816;9.420;2024-03-25T11:24:43;3.38;;;0.90;;
48791;SDS011;34587;48.816;9.420;2024-03-25T11:27:09;0.93;;;0.90;;
48791;SDS011;34587;48.816;9.420;2024-03-25T11:29:34;1.55;;;1.25;;
48791;SDS011;34587;48.816;9.420;2024-03-25T11:32:03;2.17;;;1.15;;
48791;SDS011;34587;48.816;9.420;2024-03-25T11:34:29;2.13;;;1.33;;
48791;SDS011;34587;48.816;9.420;2024-03-25T11:36:55;1.80;;;1.10;;
48791;SDS011;34587;48.816;9.420;2024-03-25T11:39:22;1.85;;;0.80;;
48791;SDS011;34587;48.816;9.420;2024-03-25T11:41:48;3.85;;;0.90;;
48791;SDS011;34587;48.816;9.420;2024-03-25T11:44:13;1.50;;;0.90;;
48791;SDS011;34587;48.816;9.420;2024-03-25T11:46:39;3.88;;;1.10;;
48791;SDS011;34587;48.816;9.420;2024-03-25T11:49:08;1.65;;;1.10;;
48791;SDS011;34587;48.816;9.420;2024-03-25T11:51:36;1.52;;;0.95;;
48791;SDS011;34587;48.816;9.420;2024-03-25T11:54:05;9.45;;;4.53;;
48791;SDS011;34587;48.816;9.420;2024-03-25T11:56:31;2.88;;;1.10;;
48791;SDS011;34587;48.816;9.420;2024-03-25T11:58:56;2.90;;;1.10;;
48791;SDS011;34587;48.816;9.420;2024-03-25T12:01:22;3.25;;;1.20;;
48791;SDS011;34587;48.816;9.420;2024-03-25T12:03:47;1.40;;;0.90;;
48791;SDS011;34587;48.816;9.420;2024-03-25T12:06:13;2.60;;;1.10;;
48791;SDS011;34587;48.816;9.420;2024-03-25T12:08:38;2.38;;;0.82;;
48791;SDS011;34587;48.816;9.420;2024-03-25T12:11:24;2.00;;;1.02;;
48791;SDS011;34587;48.816;9.420;2024-03-25T12:13:50;2.50;;;1.08;;
48791;SDS011;34587;48.816;9.420;2024-03-25T12:16:16;2.03;;;1.20;;
48791;SDS011;34587;48.816;9.420;2024-03-25T12:18:41;2.85;;;1.30;;
48791;SDS011;34587;48.816;9.420;2024-03-25T12:21:07;2.45;;;0.85;;
48791;SDS011;34587;48.816;9.420;2024-03-25T12:23:33;5.57;;;1.10;;
48791;SDS011;34587;48.816;9.420;2024-03-25T12:25:59;2.05;;;1.20;;
48791;SDS011;34587;48.816;9.420;2024-03-25T12:28:26;1.50;;;1.38;;
48791;SDS011;34587;48.816;9.420;2024-03-25T12:30:52;3.47;;;1.45;;
48791;SDS011;34587;48.816;9.420;2024-03-25T12:33:20;1.35;;;1.10;;
48791;SDS011;34587;48.816;9.420;2024-03-25T12:35:46;1.63;;;1.40;;
48791;SDS011;34587;48.816;9.420;2024-03-25T12:38:22;3.58;;;1.00;;
48791;SDS011;34587;48.816;9.420;2024-03-25T12:40:54;1.73;;;1.60;;
48791;SDS011;34587;48.816;9.420;2024-03-25T12:43:30;4.05;;;1.30;;
48791;SDS011;34587;48.816;9.420;2024-03-25T12:45:57;5.13;;;1.27;;
48791;SDS011;34587;48.816;9.420;2024-03-25T12:48:23;4.55;;;1.20;;
48791;SDS011;34587;48.816;9.420;2024-03-25T12:50:49;1.50;;;1.00;;
48791;SDS011;34587;48.816;9.420;2024-03-25T12:53:17;3.22;;;1.15;;
48791;SDS011;34587;48.816;9.420;2024-03-25T12:55:43;1.88;;;1.45;;
48791;SDS011;34587;48.816;9.420;2024-03-25T12:58:08;3.03;;;1.40;;
48791;SDS011;34587;48.816;9.420;2024-03-25T13:00:34;1.10;;;1.00;;
48791;SDS011;34587;48.816;9.420;2024-03-25T13:02:59;6.85;;;1.10;;
48791;SDS011;34587;48.816;9.420;2024-03-25T13:05:25;3.35;;;1.40;;
48791;SDS011;34587;48.816;9.420;2024-03-25T13:07:50;3.85;;;1.17;;
48791;SDS011;34587;48.816;9.420;2024-03-25T13:10:15;1.60;;;0.98;;
48791;SDS011;34587;48.816;9.420;2024-03-25T13:12:41;3.85;;;1.10;;
48791;SDS011;34587;48.816;9.420;2024-03-25T13:15:06;4.45;;;1.00;;
48791;SDS011;34587;48.816;9.420;2024-03-25T13:17:33;2.33;;;1.95;;
48791;SDS011;34587;48.816;9.420;2024-03-25T13:19:58;2.20;;;1.30;;
48791;SDS011;34587;48.816;9.420;2024-03-25T13:22:23;3.65;;;1.30;;
48791;SDS011;34587;48.816;9.420;2024-03-25T13:24:48;1.13;;;1.02;;
48791;SDS011;34587;48.816;9.420;2024-03-25T13:27:15;1.52;;;1.10;;
48791;SDS011;34587;48.816;9.420;2024-03-25T13:29:40;4.25;;;0.75;;
48791;SDS011;34587;48.816;9.420;2024-03-25T13:32:05;1.48;;;1.33;;
48791;SDS011;34587;48.816;9.420;2024-03-25T13:34:30;3.15;;;1.15;;
48791;SDS011;34587;48.816;9.420;2024-03-25T13:36:56;2.53;;;1.38;;
48791;SDS011;34587;48.816;9.420;2024-03-25T13:39:21;2.08;;;1.17;;
48791;SDS011;34587;48.816;9.420;2024-03-25T13:41:46;1.02;;;0.90;;
48791;SDS011;34587;48.816;9.420;2024-03-25T13:44:12;2.88;;;0.93;;
48791;SDS011;34587;48.816;9.420;2024-03-25T13:46:37;2.58;;;1.13;;
48791;SDS011;34587;48.816;9.420;2024-03-25T13:49:03;2.67;;;1.25;;
48791;SDS011;34587;48.816;9.420;2024-03-25T13:51:28;2.97;;;1.40;;
48791;SDS011;34587;48.816;9.420;2024-03-25T13:53:53;1.65;;;1.20;;
48791;SDS011;34587;48.816;9.420;2024-03-25T13:56:18;0.88;;;0.88;;
48791;SDS011;34587;48.816;9.420;2024-03-25T13:58:44;1.20;;;1.10;;
48791;SDS011;34587;48.816;9.420;2024-03-25T14:01:09;1.25;;;1.10;;
48791;SDS011;34587;48.816;9.420;2024-03-25T14:03:34;2.72;;;0.90;;
48791;SDS011;34587;48.816;9.420;2024-03-25T14:06:00;1.98;;;1.10;;
48791;SDS011;34587;48.816;9.420;2024-03-25T14:08:25;1.38;;;1.10;;
48791;SDS011;34587;48.816;9.420;2024-03-25T14:10:57;1.88;;;1.30;;
48791;SDS011;34587;48.816;9.420;2024-03-25T14:13:26;0.93;;;0.93;;
48791;SDS011;34587;48.816;9.420;2024-03-25T14:15:52;0.95;;;0.80;;
48791;SDS011;34587;48.816;9.420;2024-03-25T14:18:17;1.42;;;0.93;;
48791;SDS011;34587;48.816;9.420;2024-03-25T14:20:42;5.93;;;1.58;;
48791;SDS011;34587;48.816;9.420;2024-03-25T14:23:08;1.75;;;0.90;;
48791;SDS011;34587;48.816;9.420;2024-03-25T14:25:33;2.58;;;1.40;;
48791;SDS011;34587;48.816;9.420;2024-03-25T14:27:58;4.85;;;1.50;;
48791;SDS011;34587;48.816;9.420;2024-03-25T14:30:24;1.77;;;1.20;;
48791;SDS011;34587;48.816;9.420;2024-03-25T14:32:49;3.65;;;1.00;;
48791;SDS011;34587;48.816;9.420;2024-03-25T14:35:14;1.10;;;1.08;;
48791;SDS011;34587;48.816;9.420;2024-03-25T14:37:40;3.63;;;1.25;;
48791;SDS011;34587;48.816;9.420;2024-03-25T14:40:05;1.73;;;1.20;;
48791;SDS011;34587;48.816;9.420;2024-03-25T14:42:31;3.13;;;1.67;;
48791;SDS011;34587;48.816;9.420;2024-03-25T14:44:57;2.95;;;1.63;;
48791;SDS011;34587;48.816;9.420;2024-03-25T14:47:23;1.98;;;1.40;;
48791;SDS011;34587;48.816;9.420;2024-03-25T14:49:48;5.13;;;1.25;;
48791;SDS011;34587;48.816;9.420;2024-03-25T14:52:13;3.40;;;1.25;;
48791;SDS011;34587;48.816;9.420;2024-03-25T14:54:39;1.80;;;1.23;;
48791;SDS011;34587;48.816;9.420;2024-03-25T14:57:04;2.17;;;1.30;;
48791;SDS011;34587;48.816;9.420;2024-03-25T14:59:30;2.17;;;1.30;;
48791;SDS011;34587;48.816;9.420;2024-03-25T15:01:59;1.20;;;1.10;;
48791;SDS011;34587;48.816;9.420;2024-03-25T15:04:26;1.80;;;1.30;;
48791;SDS011;34587;48.816;9.420;2024-03-25T15:06:51;3.97;;;1.13;;
48791;SDS011;34587;48.816;9.420;2024-03-25T15:09:17;1.27;;;1.17;;
48791;SDS011;34587;48.816;9.420;2024-03-25T15:11:42;4.03;;;1.80;;
48791;SDS011;34587;48.816;9.420;2024-03-25T15:14:07;3.28;;;1.30;;
48791;SDS011;34587;48.816;9.420;2024-03-25T15:16:33;2.30;;;1.20;;
48791;SDS011;34587;48.816;9.420;2024-03-25T15:18:58;6.32;;;1.17;;
48791;SDS011;34587;48.816;9.420;2024-03-25T15:21:23;3.17;;;1.42;;
48791;SDS011;34587;48.816;9.420;2024-03-25T15:23:49;3.15;;;1.50;;
48791;SDS011;34587;48.816;9.420;2024-03-25T15:26:14;1.70;;;1.20;;
48791;SDS011;34587;48.816;9.420;2024-03-25T15:28:40;5.57;;;1.65;;
48791;SDS011;34587;48.816;9.420;2024-03-25T15:31:05;2.28;;;1.50;;
48791;SDS011;34587;48.816;9.420;2024-03-25T15:33:30;3.15;;;1.20;;
48791;SDS011;34587;48.816;9.420;2024-03-25T15:35:57;1.90;;;1.52;;
48791;SDS011;34587;48.816;9.420;2024-03-25T15:38:22;1.75;;;1.08;;
48791;SDS011;34587;48.816;9.420;2024-03-25T15:40:48;3.72;;;1.40;;
48791;SDS011;34587;48.816;9.420;2024-03-25T15:43:17;2.22;;;1.63;;
48791;SDS011;34587;48.816;9.420;2024-03-25T15:45:43;5.32;;;1.20;;
48791;SDS011;34587;48.816;9.420;2024-03-25T15:48:21;1.10;;;1.00;;
48791;SDS011;34587;48.816;9.420;2024-03-25T15:50:47;2.10;;;1.58;;
48791;SDS011;34587;48.816;9.420;2024-03-25T15:53:12;3.67;;;1.20;;
48791;SDS011;34587;48.816;9.420;2024-03-25T15:55:38;2.75;;;1.20;;
48791;SDS011;34587;48.816;9.420;2024-03-25T15:58:04;4.45;;;1.38;;
48791;SDS011;34587;48.816;9.420;2024-03-25T16:00:30;1.88;;;1.73;;
48791;SDS011;34587;48.816;9.420;2024-03-25T16:02:55;2.88;;;1.65;;
48791;SDS011;34587;48.816;9.420;2024-03-25T16:05:22;1.60;;;1.23;;
48791;SDS011;34587;48.816;9.420;2024-03-25T16:07:47;5.95;;;1.40;;
48791;SDS011;34587;48.816;9.420;2024-03-25T16:10:12;1.52;;;1.40;;
48791;SDS011;34587;48.816;9.420;2024-03-25T16:12:38;2.35;;;1.50;;
48791;SDS011;34587;48.816;9.420;2024-03-25T16:15:03;2.47;;;1.33;;
48791;SDS011;34587;48.816;9.420;2024-03-25T16:17:29;6.78;;;2.40;;
48791;SDS011;34587;48.816;9.420;2024-03-25T16:19:54;5.05;;;1.52;;
48791;SDS011;34587;48.816;9.420;2024-03-25T16:22:20;2.78;;;1.50;;
48791;SDS011;34587;48.816;9.420;2024-03-25T16:24:45;6.80;;;2.58;;
48791;SDS011;34587;48.816;9.420;2024-03-25T16:27:12;1.33;;;1.20;;
48791;SDS011;34587;48.816;9.420;2024-03-25T16:29:37;2.90;;;1.23;;
48791;SDS011;34587;48.816;9.420;2024-03-25T16:32:02;2.38;;;1.35;;
48791;SDS011;34587;48.816;9.420;2024-03-25T16:34:28;1.45;;;1.30;;
48791;SDS011;34587;48.816;9.420;2024-03-25T16:36:54;2.35;;;1.15;;
48791;SDS011;34587;48.816;9.420;2024-03-25T16:39:19;2.80;;;1.30;;
48791;SDS011;34587;48.816;9.420;2024-03-25T16:41:45;1.48;;;0.90;;
48791;SDS011;34587;48.816;9.420;2024-03-25T16:44:10;2.25;;;1.40;;
48791;SDS011;34587;48.816;9.420;2024-03-25T16:46:36;2.42;;;1.30;;
48791;SDS011;34587;48.816;9.420;2024-03-25T16:49:02;2.03;;;1.40;;
48791;SDS011;34587;48.816;9.420;2024-03-25T16:51:27;1.55;;;1.20;;
48791;SDS011;34587;48.816;9.420;2024-03-25T16:53:53;1.67;;;1.20;;
48791;SDS011;34587;48.816;9.420;2024-03-25T16:56:18;1.20;;;1.10;;
48791;SDS011;34587;48.816;9.420;2024-03-25T16:58:43;2.20;;;1.20;;
48791;SDS011;34587;48.816;9.420;2024-03-25T17:01:09;1.73;;;1.33;;
48791;SDS011;34587;48.816;9.420;2024-03-25T17:03:34;1.52;;;1.25;;
48791;SDS011;34587;48.816;9.420;2024-03-25T17:06:00;4.78;;;1.20;;
48791;SDS011;34587;48.816;9.420;2024-03-25T17:08:25;1.85;;;1.58;;
48791;SDS011;34587;48.816;9.420;2024-03-25T17:10:51;3.83;;;1.25;;
48791;SDS011;34587;48.816;9.420;2024-03-25T17:13:16;2.88;;;1.42;;
48791;SDS011;34587;48.816;9.420;2024-03-25T17:15:42;2.60;;;1.42;;
48791;SDS011;34587;48.816;9.420;2024-03-25T17:18:08;3.30;;;1.10;;
48791;SDS011;34587;48.816;9.420;2024-03-25T17:20:34;4.05;;;1.35;;
48791;SDS011;34587;48.816;9.420;2024-03-25T17:23:00;3.20;;;1.15;;
48791;SDS011;34587;48.816;9.420;2024-03-25T17:25:25;1.30;;;1.20;;
48791;SDS011;34587;48.816;9.420;2024-03-25T17:27:51;2.97;;;1.70;;
48791;SDS011;34587;48.816;9.420;2024-03-25T17:30:16;3.40;;;1.63;;
48791;SDS011;34587;48.816;9.420;2024-03-25T17:32:41;3.28;;;1.67;;
48791;SDS011;34587;48.816;9.420;2024-03-25T17:35:07;2.50;;;1.10;;
48791;SDS011;34587;48.816;9.420;2024-03-25T17:37:32;2.20;;;1.23;;
48791;SDS011;34587;48.816;9.420;2024-03-25T17:39:57;1.13;;;1.02;;
48791;SDS011;34587;48.816;9.420;2024-03-25T17:42:23;1.88;;;1.50;;
48791;SDS011;34587;48.816;9.420;2024-03-25T17:44:49;1.73;;;1.30;;
48791;SDS011;34587;48.816;9.420;2024-03-25T17:47:14;2.13;;;1.92;;
48791;SDS011;34587;48.816;9.420;2024-03-25T17:49:40;1.90;;;1.50;;
48791;SDS011;34587;48.816;9.420;2024-03-25T17:52:06;2.42;;;1.55;;
48791;SDS011;34587;48.816;9.420;2024-03-25T17:54:31;1.75;;;1.55;;
48791;SDS011;34587;48.816;9.420;2024-03-25T17:56:56;5.63;;;1.60;;
48791;SDS011;34587;48.816;9.420;2024-03-25T17:59:22;2.35;;;1.42;;
48791;SDS011;34587;48.816;9.420;2024-03-25T18:01:48;1.33;;;1.10;;
48791;SDS011;34587;48.816;9.420;2024-03-25T18:04:13;1.83;;;1.10;;
48791;SDS011;34587;48.816;9.420;2024-03-25T18:06:38;1.38;;;1.27;;
48791;SDS011;34587;48.816;9.420;2024-03-25T18:09:04;1.42;;;1.10;;
48791;SDS011;34587;48.816;9.420;2024-03-25T18:11:29;4.60;;;1.02;;
48791;SDS011;34587;48.816;9.420;2024-03-25T18:13:54;1.30;;;1.02;;
48791;SDS011;34587;48.816;9.420;2024-03-25T18:16:20;2.97;;;1.83;;
48791;SDS011;34587;48.816;9.420;2024-03-25T18:18:45;4.15;;;2.80;;
48791;SDS011;34587;48.816;9.420;2024-03-25T18:21:10;3.75;;;1.95;;
48791;SDS011;34587;48.816;9.420;2024-03-25T18:23:36;4.38;;;2.10;;
48791;SDS011;34587;48.816;9.420;2024-03-25T18:26:01;2.92;;;1.88;;
48791;SDS011;34587;48.816;9.420;2024-03-25T18:28:26;5.15;;;2.38;;
48791;SDS011;34587;48.816;9.420;2024-03-25T18:30:55;4.15;;;2.40;;
48791;SDS011;34587;48.816;9.420;2024-03-25T18:33:22;8.77;;;2.50;;
48791;SDS011;34587;48.816;9.420;2024-03-25T18:35:47;5.40;;;2.30;;
48791;SDS011;34587;48.816;9.420;2024-03-25T18:38:12;3.25;;;2.08;;
48791;SDS011;34587;48.816;9.420;2024-03-25T18:40:38;7.30;;;2.83;;
48791;SDS011;34587;48.816;9.420;2024-03-25T18:43:03;3.83;;;2.53;;
48791;SDS011;34587;48.816;9.420;2024-03-25T18:45:28;5.70;;;2.78;;
48791;SDS011;34587;48.816;9.420;2024-03-25T18:47:54;4.93;;;2.65;;
48791;SDS011;34587;48.816;9.420;2024-03-25T18:50:19;4.32;;;2.97;;
48791;SDS011;34587;48.816;9.420;2024-03-25T18:52:44;8.43;;;3.17;;
48791;SDS011;34587;48.816;9.420;2024-03-25T18:55:09;8.40;;;4.50;;
48791;SDS011;34587;48.816;9.420;2024-03-25T18:57:35;6.25;;;3.80;;